sensor_id;sensor_type;location;lat;lon;timestamp;pressure;altitude;pressure_sealevel;temperature;humidity
75886;BME280;64561;44.018;10.144;2024-03-25T00:02:11;100776.00;;;9.53;94.97
75886;BME280;64561;44.018;10.144;2024-03-25T00:04:37;100755.22;;;9.41;95.04
75886;BME280;64561;44.018;10.144;2024-03-25T00:07:11;100770.03;;;9.53;95.10
75886;BME280;64561;44.018;10.144;2024-03-25T00:09:37;100755.72;;;9.59;95.22
75886;BME280;64561;44.018;10.144;2024-03-25T00:12:04;100756.16;;;9.75;95.20
75886;BME280;64561;44.018;10.144;2024-03-25T00:14:30;100759.81;;;9.86;94.75
75886;BME280;64561;44.018;10.144;2024-03-25T00:17:00;100759.97;;;9.92;94.07
75886;BME280;64561;44.018;10.144;2024-03-25T00:19:26;100754.06;;;9.93;93.56
75886;BME280;64561;44.018;10.144;2024-03-25T00:21:53;100754.22;;;10.01;93.21
75886;BME280;64561;44.018;10.144;2024-03-25T00:24:22;100757.66;;;10.01;92.96
75886;BME280;64561;44.018;10.144;2024-03-25T00:26:49;100758.88;;;9.82;92.41
75886;BME280;64561;44.018;10.144;2024-03-25T00:29:24;100761.41;;;9.81;92.94
75886;BME280;64561;44.018;10.144;2024-03-25T00:31:53;100758.13;;;9.87;92.19
75886;BME280;64561;44.018;10.144;2024-03-25T00:34:19;100759.81;;;9.84;92.32
75886;BME280;64561;44.018;10.144;2024-03-25T00:36:45;100752.94;;;9.83;92.99
75886;BME280;64561;44.018;10.144;2024-03-25T00:39:12;100763.22;;;9.87;92.72
75886;BME280;64561;44.018;10.144;2024-03-25T00:41:42;100757.31;;;9.88;92.79
75886;BME280;64561;44.018;10.144;2024-03-25T00:44:08;100763.44;;;9.94;92.40
75886;BME280;64561;44.018;10.144;2024-03-25T00:46:34;100759.28;;;9.98;92.19
75886;BME280;64561;44.018;10.144;2024-03-25T00:49:00;100756.84;;;10.02;92.13
75886;BME280;64561;44.018;10.144;2024-03-25T00:51:27;100746.63;;;10.02;91.66
75886;BME280;64561;44.018;10.144;2024-03-25T00:53:53;100745.47;;;9.91;91.21
75886;BME280;64561;44.018;10.144;2024-03-25T00:56:19;100746.00;;;9.78;91.99
75886;BME280;64561;44.018;10.144;2024-03-25T00:58:46;100732.94;;;9.67;92.98
75886;BME280;64561;44.018;10.144;2024-03-25T01:01:12;100736.34;;;9.68;93.15
75886;BME280;64561;44.018;10.144;2024-03-25T01:03:40;100732.47;;;9.50;92.66
75886;BME280;64561;44.018;10.144;2024-03-25T01:06:06;100743.44;;;9.45;93.62
75886;BME280;64561;44.018;10.144;2024-03-25T01:08:32;100744.13;;;9.39;93.43
75886;BME280;64561;44.018;10.144;2024-03-25T01:10:59;100742.22;;;9.32;93.35
75886;BME280;64561;44.018;10.144;2024-03-25T01:13:26;100741.25;;;9.27;92.13
75886;BME280;64561;44.018;10.144;2024-03-25T01:15:52;100739.56;;;9.29;92.18
75886;BME280;64561;44.018;10.144;2024-03-25T01:18:18;100741.16;;;9.24;91.61
75886;BME280;64561;44.018;10.144;2024-03-25T01:20:45;100733.44;;;9.22;91.33
75886;BME280;64561;44.018;10.144;2024-03-25T01:23:11;100735.22;;;9.25;91.23
75886;BME280;64561;44.018;10.144;2024-03-25T01:25:37;100736.22;;;9.30;91.46
75886;BME280;64561;44.018;10.144;2024-03-25T01:28:03;100743.97;;;9.33;91.78
75886;BME280;64561;44.018;10.144;2024-03-25T01:30:31;100739.91;;;9.11;91.11
75886;BME280;64561;44.018;10.144;2024-03-25T01:32:58;100749.44;;;9.16;91.75
75886;BME280;64561;44.018;10.144;2024-03-25T01:35:24;100748.53;;;9.14;91.95
75886;BME280;64561;44.018;10.144;2024-03-25T01:37:50;100753.69;;;9.16;91.12
75886;BME280;64561;44.018;10.144;2024-03-25T01:40:16;100751.91;;;9.13;91.54
75886;BME280;64561;44.018;10.144;2024-03-25T01:42:43;100751.72;;;9.07;91.20
75886;BME280;64561;44.018;10.144;2024-03-25T01:45:10;100740.66;;;9.07;90.17
75886;BME280;64561;44.018;10.144;2024-03-25T01:47:38;100751.34;;;8.93;89.61
75886;BME280;64561;44.018;10.144;2024-03-25T01:50:06;100742.28;;;8.75;90.89
75886;BME280;64561;44.018;10.144;2024-03-25T01:52:33;100747.06;;;8.64;92.01
75886;BME280;64561;44.018;10.144;2024-03-25T01:55:00;100748.63;;;8.60;91.80
75886;BME280;64561;44.018;10.144;2024-03-25T01:57:30;100745.22;;;8.60;90.89
75886;BME280;64561;44.018;10.144;2024-03-25T02:00:01;100744.47;;;8.62;91.48
75886;BME280;64561;44.018;10.144;2024-03-25T02:02:34;100745.09;;;8.55;91.44
75886;BME280;64561;44.018;10.144;2024-03-25T02:05:02;100745.41;;;8.66;91.05
75886;BME280;64561;44.018;10.144;2024-03-25T02:07:30;100741.19;;;8.66;90.45
75886;BME280;64561;44.018;10.144;2024-03-25T02:09:57;100748.94;;;8.69;89.94
75886;BME280;64561;44.018;10.144;2024-03-25T02:12:24;100746.16;;;8.62;88.93
75886;BME280;64561;44.018;10.144;2024-03-25T02:14:50;100745.41;;;8.66;89.74
75886;BME280;64561;44.018;10.144;2024-03-25T02:17:17;100732.81;;;8.70;90.28
75886;BME280;64561;44.018;10.144;2024-03-25T02:19:44;100735.63;;;8.80;89.75
75886;BME280;64561;44.018;10.144;2024-03-25T02:22:10;100736.63;;;8.85;90.52
75886;BME280;64561;44.018;10.144;2024-03-25T02:24:38;100740.91;;;8.86;89.21
75886;BME280;64561;44.018;10.144;2024-03-25T02:27:04;100739.78;;;8.76;88.91
75886;BME280;64561;44.018;10.144;2024-03-25T02:29:34;100739.69;;;8.73;89.48
75886;BME280;64561;44.018;10.144;2024-03-25T02:32:01;100730.88;;;8.63;89.97
75886;BME280;64561;44.018;10.144;2024-03-25T02:34:27;100732.63;;;8.64;90.67
75886;BME280;64561;44.018;10.144;2024-03-25T02:36:53;100743.84;;;8.69;91.22
75886;BME280;64561;44.018;10.144;2024-03-25T02:39:20;100749.16;;;8.77;91.14
75886;BME280;64561;44.018;10.144;2024-03-25T02:41:46;100747.53;;;8.79;90.63
75886;BME280;64561;44.018;10.144;2024-03-25T02:44:13;100750.19;;;8.84;90.50
75886;BME280;64561;44.018;10.144;2024-03-25T02:46:40;100760.50;;;8.87;91.02
75886;BME280;64561;44.018;10.144;2024-03-25T02:49:07;100755.03;;;8.75;91.29
75886;BME280;64561;44.018;10.144;2024-03-25T02:51:33;100753.94;;;8.66;93.36
75886;BME280;64561;44.018;10.144;2024-03-25T02:53:59;100748.72;;;8.63;94.13
75886;BME280;64561;44.018;10.144;2024-03-25T02:56:26;100752.44;;;8.73;93.64
75886;BME280;64561;44.018;10.144;2024-03-25T02:58:53;100757.47;;;8.72;92.51
75886;BME280;64561;44.018;10.144;2024-03-25T03:01:19;100763.41;;;8.70;92.82
75886;BME280;64561;44.018;10.144;2024-03-25T03:03:45;100767.50;;;8.65;94.09
75886;BME280;64561;44.018;10.144;2024-03-25T03:06:11;100765.63;;;8.60;94.57
75886;BME280;64561;44.018;10.144;2024-03-25T03:08:38;100770.59;;;8.55;95.27
75886;BME280;64561;44.018;10.144;2024-03-25T03:11:04;100771.50;;;8.57;95.80
75886;BME280;64561;44.018;10.144;2024-03-25T03:13:31;100765.34;;;8.51;96.39
75886;BME280;64561;44.018;10.144;2024-03-25T03:15:57;100773.75;;;8.48;97.27
75886;BME280;64561;44.018;10.144;2024-03-25T03:18:23;100779.84;;;8.52;97.87
75886;BME280;64561;44.018;10.144;2024-03-25T03:20:49;100773.16;;;8.55;99.23
75886;BME280;64561;44.018;10.144;2024-03-25T03:23:16;100778.28;;;8.57;98.08
75886;BME280;64561;44.018;10.144;2024-03-25T03:25:43;100786.56;;;8.50;99.16
75886;BME280;64561;44.018;10.144;2024-03-25T03:28:09;100784.75;;;8.45;100.00
75886;BME280;64561;44.018;10.144;2024-03-25T03:30:36;100783.81;;;8.43;100.00
75886;BME280;64561;44.018;10.144;2024-03-25T03:33:02;100780.50;;;8.46;100.00
75886;BME280;64561;44.018;10.144;2024-03-25T03:35:29;100779.88;;;8.53;100.00
75886;BME280;64561;44.018;10.144;2024-03-25T03:37:55;100775.88;;;8.61;100.00
75886;BME280;64561;44.018;10.144;2024-03-25T03:40:21;100785.50;;;8.70;100.00
75886;BME280;64561;44.018;10.144;2024-03-25T03:42:47;100784.03;;;8.78;100.00
75886;BME280;64561;44.018;10.144;2024-03-25T03:45:13;100784.38;;;8.89;100.00
75886;BME280;64561;44.018;10.144;2024-03-25T03:47:39;100777.72;;;8.94;100.00
75886;BME280;64561;44.018;10.144;2024-03-25T03:50:07;100781.31;;;9.01;100.00
75886;BME280;64561;44.018;10.144;2024-03-25T03:52:33;100780.59;;;9.05;100.00
75886;BME280;64561;44.018;10.144;2024-03-25T03:55:00;100776.47;;;9.10;100.00
75886;BME280;64561;44.018;10.144;2024-03-25T03:57:27;100779.16;;;9.14;100.00
75886;BME280;64561;44.018;10.144;2024-03-25T03:59:53;100766.38;;;9.13;100.00
75886;BME280;64561;44.018;10.144;2024-03-25T04:02:20;100769.06;;;9.18;100.00
75886;BME280;64561;44.018;10.144;2024-03-25T04:04:46;100770.72;;;9.17;99.74
75886;BME280;64561;44.018;10.144;2024-03-25T04:07:12;100767.19;;;9.12;99.79
75886;BME280;64561;44.018;10.144;2024-03-25T04:09:39;100762.94;;;9.12;99.79
75886;BME280;64561;44.018;10.144;2024-03-25T04:12:05;100768.84;;;9.11;98.80
75886;BME280;64561;44.018;10.144;2024-03-25T04:14:31;100787.63;;;9.12;98.91
75886;BME280;64561;44.018;10.144;2024-03-25T04:16:58;100795.22;;;9.10;99.10
75886;BME280;64561;44.018;10.144;2024-03-25T04:19:25;100796.75;;;9.05;99.20
75886;BME280;64561;44.018;10.144;2024-03-25T04:21:55;100798.09;;;8.92;99.50
75886;BME280;64561;44.018;10.144;2024-03-25T04:24:22;100795.41;;;8.88;100.00
75886;BME280;64561;44.018;10.144;2024-03-25T04:26:48;100801.41;;;8.90;99.89
75886;BME280;64561;44.018;10.144;2024-03-25T04:29:15;100801.22;;;8.84;99.97
75886;BME280;64561;44.018;10.144;2024-03-25T04:31:42;100801.91;;;8.78;100.00
75886;BME280;64561;44.018;10.144;2024-03-25T04:34:08;100796.69;;;8.75;100.00
75886;BME280;64561;44.018;10.144;2024-03-25T04:36:34;100796.78;;;8.78;100.00
75886;BME280;64561;44.018;10.144;2024-03-25T04:39:00;100799.69;;;8.89;100.00
75886;BME280;64561;44.018;10.144;2024-03-25T04:41:27;100791.25;;;8.91;100.00
75886;BME280;64561;44.018;10.144;2024-03-25T04:43:53;100791.88;;;8.84;99.29
75886;BME280;64561;44.018;10.144;2024-03-25T04:46:19;100802.06;;;8.83;99.88
75886;BME280;64561;44.018;10.144;2024-03-25T04:48:48;100799.97;;;8.69;99.85
75886;BME280;64561;44.018;10.144;2024-03-25T04:51:14;100807.09;;;8.54;100.00
75886;BME280;64561;44.018;10.144;2024-03-25T04:53:40;100803.50;;;8.47;100.00
75886;BME280;64561;44.018;10.144;2024-03-25T04:56:07;100806.78;;;8.43;100.00
75886;BME280;64561;44.018;10.144;2024-03-25T04:58:33;100806.03;;;8.47;100.00
75886;BME280;64561;44.018;10.144;2024-03-25T05:01:00;100812.91;;;8.49;100.00
75886;BME280;64561;44.018;10.144;2024-03-25T05:03:26;100806.72;;;8.42;99.77
75886;BME280;64561;44.018;10.144;2024-03-25T05:05:54;100816.81;;;8.39;100.00
75886;BME280;64561;44.018;10.144;2024-03-25T05:08:20;100815.28;;;8.44;100.00
75886;BME280;64561;44.018;10.144;2024-03-25T05:10:47;100807.63;;;8.44;100.00
75886;BME280;64561;44.018;10.144;2024-03-25T05:13:13;100809.97;;;8.38;100.00
75886;BME280;64561;44.018;10.144;2024-03-25T05:15:40;100811.88;;;8.43;100.00
75886;BME280;64561;44.018;10.144;2024-03-25T05:18:06;100818.69;;;8.44;100.00
75886;BME280;64561;44.018;10.144;2024-03-25T05:20:32;100812.22;;;8.29;100.00
75886;BME280;64561;44.018;10.144;2024-03-25T05:22:58;100812.03;;;8.24;100.00
75886;BME280;64561;44.018;10.144;2024-03-25T05:25:25;100822.53;;;8.33;100.00
75886;BME280;64561;44.018;10.144;2024-03-25T05:27:54;100833.09;;;8.42;100.00
75886;BME280;64561;44.018;10.144;2024-03-25T05:30:21;100839.19;;;8.47;100.00
75886;BME280;64561;44.018;10.144;2024-03-25T05:32:49;100840.97;;;8.50;100.00
75886;BME280;64561;44.018;10.144;2024-03-25T05:35:15;100839.44;;;8.55;100.00
75886;BME280;64561;44.018;10.144;2024-03-25T05:37:41;100837.69;;;8.54;99.90
75886;BME280;64561;44.018;10.144;2024-03-25T05:40:08;100835.97;;;8.53;100.00
75886;BME280;64561;44.018;10.144;2024-03-25T05:42:38;100851.75;;;8.68;99.59
75886;BME280;64561;44.018;10.144;2024-03-25T05:45:04;100856.78;;;8.65;98.32
75886;BME280;64561;44.018;10.144;2024-03-25T05:47:31;100851.56;;;8.62;98.81
75886;BME280;64561;44.018;10.144;2024-03-25T05:49:57;100852.97;;;8.53;98.65
75886;BME280;64561;44.018;10.144;2024-03-25T05:52:24;100849.47;;;8.49;98.33
75886;BME280;64561;44.018;10.144;2024-03-25T05:54:51;100850.13;;;8.43;99.62
75886;BME280;64561;44.018;10.144;2024-03-25T05:57:17;100861.28;;;8.47;98.85
75886;BME280;64561;44.018;10.144;2024-03-25T05:59:43;100868.09;;;8.48;99.99
75886;BME280;64561;44.018;10.144;2024-03-25T06:02:10;100866.38;;;8.47;99.31
75886;BME280;64561;44.018;10.144;2024-03-25T06:04:36;100869.56;;;8.40;98.97
75886;BME280;64561;44.018;10.144;2024-03-25T06:07:02;100877.44;;;8.23;99.26
75886;BME280;64561;44.018;10.144;2024-03-25T06:09:28;100874.59;;;8.14;100.00
75886;BME280;64561;44.018;10.144;2024-03-25T06:11:56;100876.72;;;8.02;100.00
75886;BME280;64561;44.018;10.144;2024-03-25T06:14:23;100873.34;;;8.03;100.00
75886;BME280;64561;44.018;10.144;2024-03-25T06:16:50;100881.47;;;8.17;100.00
75886;BME280;64561;44.018;10.144;2024-03-25T06:19:16;100887.97;;;8.33;100.00
75886;BME280;64561;44.018;10.144;2024-03-25T06:21:42;100894.63;;;8.53;100.00
75886;BME280;64561;44.018;10.144;2024-03-25T06:24:08;100898.50;;;8.67;100.00
75886;BME280;64561;44.018;10.144;2024-03-25T06:26:35;100904.84;;;8.79;100.00
75886;BME280;64561;44.018;10.144;2024-03-25T06:29:01;100893.84;;;8.81;100.00
75886;BME280;64561;44.018;10.144;2024-03-25T06:31:28;100899.88;;;8.83;100.00
75886;BME280;64561;44.018;10.144;2024-03-25T06:34:13;100899.34;;;8.93;100.00
75886;BME280;64561;44.018;10.144;2024-03-25T06:36:48;100903.16;;;9.06;100.00
75886;BME280;64561;44.018;10.144;2024-03-25T06:39:15;100896.72;;;9.19;100.00
75886;BME280;64561;44.018;10.144;2024-03-25T06:41:41;100906.53;;;9.34;100.00
75886;BME280;64561;44.018;10.144;2024-03-25T06:44:08;100899.25;;;9.46;100.00
75886;BME280;64561;44.018;10.144;2024-03-25T06:46:35;100900.53;;;9.60;100.00
75886;BME280;64561;44.018;10.144;2024-03-25T06:49:01;100901.66;;;9.70;100.00
75886;BME280;64561;44.018;10.144;2024-03-25T06:51:27;100907.16;;;9.84;99.65
75886;BME280;64561;44.018;10.144;2024-03-25T06:53:53;100900.53;;;9.92;98.26
75886;BME280;64561;44.018;10.144;2024-03-25T06:56:19;100896.53;;;10.00;97.34
75886;BME280;64561;44.018;10.144;2024-03-25T06:58:45;100896.81;;;10.11;95.94
75886;BME280;64561;44.018;10.144;2024-03-25T07:01:11;100892.75;;;10.19;88.86
75886;BME280;64561;44.018;10.144;2024-03-25T07:03:38;100893.88;;;10.27;88.62
75886;BME280;64561;44.018;10.144;2024-03-25T07:06:05;100884.00;;;10.41;88.41
75886;BME280;64561;44.018;10.144;2024-03-25T07:08:31;100891.97;;;10.53;88.35
75886;BME280;64561;44.018;10.144;2024-03-25T07:10:57;100887.97;;;10.65;87.95
75886;BME280;64561;44.018;10.144;2024-03-25T07:13:26;100883.97;;;10.74;88.24
75886;BME280;64561;44.018;10.144;2024-03-25T07:15:52;100875.66;;;10.83;87.73
75886;BME280;64561;44.018;10.144;2024-03-25T07:18:18;100876.81;;;10.97;84.02
75886;BME280;64561;44.018;10.144;2024-03-25T07:20:45;100871.94;;;11.08;80.38
75886;BME280;64561;44.018;10.144;2024-03-25T07:23:11;100861.78;;;11.11;80.47
75886;BME280;64561;44.018;10.144;2024-03-25T07:25:37;100856.00;;;11.21;78.45
75886;BME280;64561;44.018;10.144;2024-03-25T07:28:04;100858.81;;;11.34;80.12
75886;BME280;64561;44.018;10.144;2024-03-25T07:30:31;100859.00;;;11.41;79.21
75886;BME280;64561;44.018;10.144;2024-03-25T07:32:58;100867.72;;;11.50;79.03
75886;BME280;64561;44.018;10.144;2024-03-25T07:35:26;100860.16;;;11.56;78.82
75886;BME280;64561;44.018;10.144;2024-03-25T07:37:53;100863.59;;;11.58;77.64
75886;BME280;64561;44.018;10.144;2024-03-25T07:40:20;100861.94;;;11.58;76.00
75886;BME280;64561;44.018;10.144;2024-03-25T07:42:48;100856.03;;;11.64;77.76
75886;BME280;64561;44.018;10.144;2024-03-25T07:45:15;100846.91;;;11.77;76.15
75886;BME280;64561;44.018;10.144;2024-03-25T07:47:42;100838.41;;;11.79;75.76
75886;BME280;64561;44.018;10.144;2024-03-25T07:50:09;100844.47;;;11.84;76.29
75886;BME280;64561;44.018;10.144;2024-03-25T07:52:35;100839.41;;;11.86;76.40
75886;BME280;64561;44.018;10.144;2024-03-25T07:55:07;100848.09;;;11.94;76.52
75886;BME280;64561;44.018;10.144;2024-03-25T07:57:33;100838.91;;;12.04;75.24
75886;BME280;64561;44.018;10.144;2024-03-25T07:59:59;100847.63;;;12.15;74.25
75886;BME280;64561;44.018;10.144;2024-03-25T08:02:25;100851.13;;;12.19;73.46
75886;BME280;64561;44.018;10.144;2024-03-25T08:04:52;100855.56;;;12.29;73.98
75886;BME280;64561;44.018;10.144;2024-03-25T08:07:18;100865.03;;;12.33;73.42
75886;BME280;64561;44.018;10.144;2024-03-25T08:09:45;100867.75;;;12.41;74.21
75886;BME280;64561;44.018;10.144;2024-03-25T08:12:11;100869.56;;;12.46;77.45
75886;BME280;64561;44.018;10.144;2024-03-25T08:14:38;100866.19;;;12.49;78.36
75886;BME280;64561;44.018;10.144;2024-03-25T08:17:04;100873.09;;;12.53;78.77
75886;BME280;64561;44.018;10.144;2024-03-25T08:19:30;100866.28;;;12.55;77.71
75886;BME280;64561;44.018;10.144;2024-03-25T08:21:57;100874.03;;;12.59;77.16
75886;BME280;64561;44.018;10.144;2024-03-25T08:24:24;100870.75;;;12.68;77.52
75886;BME280;64561;44.018;10.144;2024-03-25T08:26:50;100878.63;;;12.77;77.01
75886;BME280;64561;44.018;10.144;2024-03-25T08:29:17;100876.09;;;12.80;76.58
75886;BME280;64561;44.018;10.144;2024-03-25T08:31:43;100875.22;;;12.80;74.94
75886;BME280;64561;44.018;10.144;2024-03-25T08:34:10;100872.72;;;12.83;75.24
75886;BME280;64561;44.018;10.144;2024-03-25T08:36:36;100865.03;;;12.85;74.44
75886;BME280;64561;44.018;10.144;2024-03-25T08:39:02;100866.03;;;12.96;71.36
75886;BME280;64561;44.018;10.144;2024-03-25T08:41:30;100863.59;;;13.03;73.42
75886;BME280;64561;44.018;10.144;2024-03-25T08:43:57;100865.44;;;13.14;72.86
75886;BME280;64561;44.018;10.144;2024-03-25T08:46:23;100870.63;;;13.15;70.39
75886;BME280;64561;44.018;10.144;2024-03-25T08:48:49;100863.88;;;13.23;70.73
75886;BME280;64561;44.018;10.144;2024-03-25T08:51:16;100865.59;;;13.24;69.74
75886;BME280;64561;44.018;10.144;2024-03-25T08:53:42;100869.13;;;13.28;68.97
75886;BME280;64561;44.018;10.144;2024-03-25T08:56:09;100857.19;;;13.33;66.80
75886;BME280;64561;44.018;10.144;2024-03-25T08:58:35;100859.06;;;13.45;68.45
75886;BME280;64561;44.018;10.144;2024-03-25T09:01:02;100852.13;;;13.41;66.22
75886;BME280;64561;44.018;10.144;2024-03-25T09:03:28;100847.00;;;13.39;66.99
75886;BME280;64561;44.018;10.144;2024-03-25T09:05:57;100853.00;;;13.40;65.34
75886;BME280;64561;44.018;10.144;2024-03-25T09:08:23;100834.31;;;13.56;61.89
75886;BME280;64561;44.018;10.144;2024-03-25T09:10:50;100831.69;;;13.50;60.91
75886;BME280;64561;44.018;10.144;2024-03-25T09:13:33;100828.44;;;13.63;63.81
75886;BME280;64561;44.018;10.144;2024-03-25T09:15:59;100836.28;;;13.76;61.21
75886;BME280;64561;44.018;10.144;2024-03-25T09:18:25;100832.94;;;13.86;59.49
75886;BME280;64561;44.018;10.144;2024-03-25T09:20:53;100828.66;;;13.85;58.25
75886;BME280;64561;44.018;10.144;2024-03-25T09:23:19;100820.09;;;13.84;59.50
75886;BME280;64561;44.018;10.144;2024-03-25T09:25:53;100822.72;;;13.90;57.83
75886;BME280;64561;44.018;10.144;2024-03-25T09:28:19;100816.94;;;14.14;56.36
75886;BME280;64561;44.018;10.144;2024-03-25T09:30:48;100822.06;;;14.11;54.27
75886;BME280;64561;44.018;10.144;2024-03-25T09:33:15;100818.53;;;14.05;54.34
75886;BME280;64561;44.018;10.144;2024-03-25T09:35:42;100821.94;;;13.99;54.31
75886;BME280;64561;44.018;10.144;2024-03-25T09:38:08;100823.84;;;14.18;53.74
75886;BME280;64561;44.018;10.144;2024-03-25T09:40:40;100822.31;;;14.42;60.18
75886;BME280;64561;44.018;10.144;2024-03-25T09:43:13;100821.72;;;14.72;68.70
75886;BME280;64561;44.018;10.144;2024-03-25T09:45:44;100822.66;;;14.80;70.35
75886;BME280;64561;44.018;10.144;2024-03-25T09:48:15;100825.22;;;14.80;70.48
75886;BME280;64561;44.018;10.144;2024-03-25T09:50:43;100826.06;;;14.82;69.52
75886;BME280;64561;44.018;10.144;2024-03-25T09:53:11;100829.59;;;14.95;68.67
75886;BME280;64561;44.018;10.144;2024-03-25T09:55:37;100833.06;;;15.03;68.25
75886;BME280;64561;44.018;10.144;2024-03-25T09:58:05;100834.84;;;15.11;69.02
75886;BME280;64561;44.018;10.144;2024-03-25T10:00:31;100836.56;;;15.16;66.88
75886;BME280;64561;44.018;10.144;2024-03-25T10:02:58;100827.16;;;15.17;69.63
75886;BME280;64561;44.018;10.144;2024-03-25T10:05:24;100830.53;;;15.09;68.77
75886;BME280;64561;44.018;10.144;2024-03-25T10:07:50;100822.81;;;15.16;66.11
75886;BME280;64561;44.018;10.144;2024-03-25T10:10:20;100822.88;;;15.26;63.84
75886;BME280;64561;44.018;10.144;2024-03-25T10:12:46;100822.03;;;15.29;60.67
75886;BME280;64561;44.018;10.144;2024-03-25T10:15:18;100822.06;;;15.35;62.08
75886;BME280;64561;44.018;10.144;2024-03-25T10:17:45;100818.63;;;15.35;60.20
75886;BME280;64561;44.018;10.144;2024-03-25T10:20:14;100816.91;;;15.37;59.34
75886;BME280;64561;44.018;10.144;2024-03-25T10:22:44;100815.19;;;15.37;59.00
75886;BME280;64561;44.018;10.144;2024-03-25T10:25:21;100827.28;;;15.53;56.28
75886;BME280;64561;44.018;10.144;2024-03-25T10:27:58;100816.94;;;15.49;56.19
75886;BME280;64561;44.018;10.144;2024-03-25T10:30:27;100813.56;;;15.59;55.85
75886;BME280;64561;44.018;10.144;2024-03-25T10:33:01;100814.47;;;15.72;56.66
75886;BME280;64561;44.018;10.144;2024-03-25T10:35:29;100808.47;;;15.76;58.57
75886;BME280;64561;44.018;10.144;2024-03-25T10:38:00;100805.06;;;15.86;57.94
75886;BME280;64561;44.018;10.144;2024-03-25T10:40:29;100795.56;;;15.79;57.25
75886;BME280;64561;44.018;10.144;2024-03-25T10:43:10;100794.72;;;15.78;58.21
75886;BME280;64561;44.018;10.144;2024-03-25T10:45:40;100796.41;;;15.72;57.46
75886;BME280;64561;44.018;10.144;2024-03-25T10:48:09;100793.78;;;15.66;57.81
75886;BME280;64561;44.018;10.144;2024-03-25T10:50:39;100790.38;;;15.70;57.67
75886;BME280;64561;44.018;10.144;2024-03-25T10:53:13;100795.56;;;15.77;53.50
75886;BME280;64561;44.018;10.144;2024-03-25T10:55:40;100788.72;;;15.80;54.12
75886;BME280;64561;44.018;10.144;2024-03-25T10:58:08;100786.97;;;15.77;55.42
75886;BME280;64561;44.018;10.144;2024-03-25T11:00:35;100786.09;;;15.75;56.82
75886;BME280;64561;44.018;10.144;2024-03-25T11:03:02;100781.75;;;15.65;56.70
75886;BME280;64561;44.018;10.144;2024-03-25T11:05:29;100772.28;;;15.56;58.15
75886;BME280;64561;44.018;10.144;2024-03-25T11:07:55;100767.97;;;15.57;58.41
75886;BME280;64561;44.018;10.144;2024-03-25T11:10:29;100771.41;;;15.57;59.49
75886;BME280;64561;44.018;10.144;2024-03-25T11:12:56;100766.28;;;15.55;57.69
75886;BME280;64561;44.018;10.144;2024-03-25T11:15:22;100755.06;;;15.58;58.88
75886;BME280;64561;44.018;10.144;2024-03-25T11:17:49;100749.06;;;15.61;58.59
75886;BME280;64561;44.018;10.144;2024-03-25T11:20:16;100747.34;;;15.63;55.42
75886;BME280;64561;44.018;10.144;2024-03-25T11:22:49;100746.50;;;15.62;56.98
75886;BME280;64561;44.018;10.144;2024-03-25T11:25:17;100738.75;;;15.58;58.13
75886;BME280;64561;44.018;10.144;2024-03-25T11:27:44;100748.22;;;15.63;56.79
75886;BME280;64561;44.018;10.144;2024-03-25T11:30:12;100751.72;;;15.77;54.88
75886;BME280;64561;44.018;10.144;2024-03-25T11:32:54;100749.13;;;15.82;55.81
75886;BME280;64561;44.018;10.144;2024-03-25T11:35:21;100741.41;;;15.99;54.01
75886;BME280;64561;44.018;10.144;2024-03-25T11:37:49;100733.69;;;15.97;53.62
75886;BME280;64561;44.018;10.144;2024-03-25T11:40:17;100732.78;;;16.06;52.54
75886;BME280;64561;44.018;10.144;2024-03-25T11:42:45;100725.06;;;16.02;51.84
75886;BME280;64561;44.018;10.144;2024-03-25T11:45:21;100724.22;;;16.07;53.61
75886;BME280;64561;44.018;10.144;2024-03-25T11:47:49;100723.34;;;16.07;53.35
75886;BME280;64561;44.018;10.144;2024-03-25T11:50:17;100720.75;;;16.17;56.44
75886;BME280;64561;44.018;10.144;2024-03-25T11:52:44;100719.00;;;16.24;56.77
75886;BME280;64561;44.018;10.144;2024-03-25T11:55:10;100722.44;;;16.44;55.15
75886;BME280;64561;44.018;10.144;2024-03-25T11:57:40;100721.56;;;16.45;54.62
75886;BME280;64561;44.018;10.144;2024-03-25T12:00:08;100719.84;;;16.41;53.50
75886;BME280;64561;44.018;10.144;2024-03-25T12:02:44;100728.47;;;16.30;55.40
75886;BME280;64561;44.018;10.144;2024-03-25T12:05:14;100717.28;;;16.18;54.30
75886;BME280;64561;44.018;10.144;2024-03-25T12:07:40;100720.75;;;16.05;54.68
75886;BME280;64561;44.018;10.144;2024-03-25T12:10:07;100716.44;;;15.96;53.15
75886;BME280;64561;44.018;10.144;2024-03-25T12:12:55;100712.16;;;15.91;55.85
75886;BME280;64561;44.018;10.144;2024-03-25T12:15:22;100714.75;;;15.83;55.27
75886;BME280;64561;44.018;10.144;2024-03-25T12:17:49;100716.44;;;15.78;56.76
75886;BME280;64561;44.018;10.144;2024-03-25T12:20:19;100706.16;;;15.83;56.87
75886;BME280;64561;44.018;10.144;2024-03-25T12:22:48;100710.44;;;15.96;54.37
75886;BME280;64561;44.018;10.144;2024-03-25T12:25:15;100709.56;;;16.02;51.83
75886;BME280;64561;44.018;10.144;2024-03-25T12:27:46;100713.84;;;16.12;56.45
75886;BME280;64561;44.018;10.144;2024-03-25T12:30:13;100705.25;;;16.27;53.87
75886;BME280;64561;44.018;10.144;2024-03-25T12:35:12;100700.94;;;16.30;53.43
75886;BME280;64561;44.018;10.144;2024-03-25T12:37:43;100696.63;;;16.38;52.25
75886;BME280;64561;44.018;10.144;2024-03-25T12:40:11;100685.38;;;16.49;55.69
75886;BME280;64561;44.018;10.144;2024-03-25T12:42:38;100693.91;;;16.75;49.11
75886;BME280;64561;44.018;10.144;2024-03-25T12:45:06;100697.38;;;16.86;45.88
75886;BME280;64561;44.018;10.144;2024-03-25T12:47:33;100693.84;;;16.97;42.41